Main page
METAR-TAF:

METAR-TAF

Airports :

Fairbanks International Airport

Fairbanks, Alaska, United States

latitude: 64-48-14N, longitude: 147-52-34W, elevation: 132 m

Current weather observation

The report was made 1 hour and 1 minutes ago, at 02:53 UTC
Wind 4 kt from the North/Northwest
Temperature -23°C
Humidity 76%
Pressure 1035 hPa
Visibility: 16.1 km
Clear sky

METAR: PAFA 250253Z 34004KT 10SM CLR M23/M26 A3055 RMK AO2 SLP366 T12281261 58016

Time: 18:54 (03:54 UTC)

Forecast

The report was made 4 hours and 34 minutes ago, at 23:20 UTC
Forecast valid from 25 at 00 UTC to 26 at 06 UTC
Wind kt from the North
Visibility: 10 km
Few clouds at a height of 8000 ft

TAF: PAFA 242320Z 2500/2606 00000KT P6SM FEW080

Weather observations and forecasts of more than 4000 airports (METAR and TAF reports).

The available stations are represented by yellow and red dots on the map.

Hover mouse over dot to see the name of the station.

Then click to see weather observations and forecasts.

To change the map : click on the green buttons with a black cross to zoom in, on the green button with a dash to zoom out, or on the green arrows for adjacent maps.


METAR-TAF: